Time,TemperatureF,DewpointF,PressureIn,WindDirection,WindDirectionDegrees,WindSpeedMPH,WindSpeedGustMPH,Humidity,HourlyPrecipIn,Conditions,Clouds,dailyrainin,SoftwareType,DateUTC
2013-08-10 00:02:00,88.0,66.0,29.88,East,97,2.0,3.0,49,0.00,,,0.00,,2013-08-10 05:02:00,
2013-08-10 00:11:00,88.0,66.0,29.88,East,97,2.0,3.0,49,0.00,,,0.00,,2013-08-10 05:11:00,
2013-08-10 00:22:00,88.0,66.0,29.88,East,97,2.0,3.0,49,0.00,,,0.00,,2013-08-10 05:22:00,
2013-08-10 01:11:00,82.0,68.0,29.90,SW,217,0.0,0.0,62,0.00,,,0.00,,2013-08-10 06:11:00,
2013-08-10 01:22:00,82.0,68.0,29.90,SW,217,0.0,0.0,62,0.00,,,0.00,,2013-08-10 06:22:00,
2013-08-10 01:32:00,82.0,68.0,29.90,SW,217,0.0,0.0,62,0.00,,,0.00,,2013-08-10 06:32:00,
2013-08-10 01:44:00,82.0,68.0,29.90,SW,217,0.0,0.0,62,0.00,,,0.00,,2013-08-10 06:44:00,
2013-08-10 01:53:00,81.0,67.0,29.90,SW,217,0.0,0.0,63,0.00,,,0.00,,2013-08-10 06:53:00,
2013-08-10 02:02:00,80.0,67.0,29.91,West,273,0.0,0.0,64,0.00,,,0.00,,2013-08-10 07:02:00,
2013-08-10 02:12:00,80.0,67.0,29.91,NNW,348,0.0,1.0,65,0.00,,,0.00,,2013-08-10 07:12:00,
2013-08-10 02:22:00,80.0,67.0,29.91,NNW,348,0.0,1.0,65,0.00,,,0.00,,2013-08-10 07:22:00,
2013-08-10 02:33:00,79.0,67.0,29.90,NNW,344,0.0,0.0,66,0.00,,,0.00,,2013-08-10 07:33:00,
2013-08-10 02:43:00,80.0,67.0,29.91,NNW,344,0.0,0.0,65,0.00,,,0.00,,2013-08-10 07:43:00,
2013-08-10 02:52:00,80.0,67.0,29.91,NNW,344,0.0,0.0,65,0.00,,,0.00,,2013-08-10 07:52:00,
2013-08-10 03:01:00,80.0,67.0,29.91,NNW,344,0.0,0.0,65,0.00,,,0.00,,2013-08-10 08:01:00,
2013-08-10 03:12:00,80.0,67.0,29.91,NNW,344,0.0,0.0,65,0.00,,,0.00,,2013-08-10 08:12:00,
2013-08-10 03:21:00,78.0,69.0,29.91,NNW,346,1.0,3.0,73,0.00,,,0.00,,2013-08-10 08:21:00,
2013-08-10 03:32:00,77.0,68.0,29.91,NNW,346,0.0,1.0,73,0.00,,,0.00,,2013-08-10 08:32:00,
2013-08-10 03:43:00,77.0,68.0,29.91,North,355,0.0,0.0,74,0.00,,,0.00,,2013-08-10 08:43:00,
2013-08-10 03:53:00,77.0,68.0,29.91,North,355,0.0,0.0,74,0.00,,,0.00,,2013-08-10 08:53:00,
2013-08-10 04:02:00,77.0,69.0,29.91,NNW,346,0.0,2.0,77,0.00,,,0.00,,2013-08-10 09:02:00,
2013-08-10 04:12:00,77.0,69.0,29.91,NNW,346,0.0,1.0,77,0.00,,,0.00,,2013-08-10 09:12:00,
2013-08-10 04:21:00,77.0,69.0,29.91,NNW,346,0.0,1.0,77,0.00,,,0.00,,2013-08-10 09:21:00,
2013-08-10 04:32:00,77.0,69.0,29.91,NNW,346,0.0,1.0,77,0.00,,,0.00,,2013-08-10 09:32:00,
2013-08-10 04:43:00,77.0,69.0,29.91,NNW,346,0.0,1.0,77,0.00,,,0.00,,2013-08-10 09:43:00,
2013-08-10 04:52:00,76.0,69.0,29.91,North,355,0.0,3.0,80,0.00,,,0.00,,2013-08-10 09:52:00,
2013-08-10 05:02:00,76.0,69.0,29.91,North,355,0.0,3.0,80,0.00,,,0.00,,2013-08-10 10:02:00,
2013-08-10 05:11:00,76.0,69.0,29.91,North,355,0.0,3.0,80,0.00,,,0.00,,2013-08-10 10:11:00,
2013-08-10 05:22:00,76.0,69.0,29.91,North,355,0.0,3.0,80,0.00,,,0.00,,2013-08-10 10:22:00,
2013-08-10 05:33:00,76.0,69.0,29.91,North,355,0.0,3.0,80,0.00,,,0.00,,2013-08-10 10:33:00,
2013-08-10 05:44:00,76.0,69.0,29.91,North,355,0.0,3.0,80,0.00,,,0.00,,2013-08-10 10:44:00,
2013-08-10 05:53:00,75.0,68.0,29.92,East,90,2.0,2.0,80,0.00,,,0.00,,2013-08-10 10:53:00,
2013-08-10 06:02:00,75.0,68.0,29.92,East,90,2.0,2.0,80,0.00,,,0.00,,2013-08-10 11:02:00,
2013-08-10 06:11:00,75.0,68.0,29.92,East,90,2.0,2.0,80,0.00,,,0.00,,2013-08-10 11:11:00,
2013-08-10 06:22:00,75.0,68.0,29.92,East,90,2.0,2.0,80,0.00,,,0.00,,2013-08-10 11:22:00,
2013-08-10 06:33:00,74.0,66.0,29.93,North,0,0.0,1.0,77,0.00,,,0.00,,2013-08-10 11:33:00,
2013-08-10 06:43:00,74.0,66.0,29.93,North,0,0.0,1.0,77,0.00,,,0.00,,2013-08-10 11:43:00,
2013-08-10 06:53:00,74.0,66.0,29.93,WNW,303,1.0,3.0,77,0.00,,,0.00,,2013-08-10 11:53:00,
2013-08-10 07:01:00,74.0,66.0,29.93,NW,305,1.0,5.0,76,0.00,,,0.00,,2013-08-10 12:01:00,
2013-08-10 07:11:00,74.0,66.0,29.93,North,355,1.0,3.0,75,0.00,,,0.00,,2013-08-10 12:11:00,
2013-08-10 07:22:00,74.0,66.0,29.93,North,355,1.0,3.0,75,0.00,,,0.00,,2013-08-10 12:22:00,
2013-08-10 07:32:00,75.0,66.0,29.94,NNW,336,0.0,3.0,74,0.00,,,0.00,,2013-08-10 12:32:00,
2013-08-10 07:42:00,76.0,66.0,29.94,NNW,343,1.0,3.0,72,0.00,,,0.00,,2013-08-10 12:42:00,
2013-08-10 07:52:00,76.0,66.0,29.94,NNW,343,1.0,3.0,72,0.00,,,0.00,,2013-08-10 12:52:00,
2013-08-10 08:01:00,77.0,69.0,29.94,NNW,336,1.0,3.0,76,0.00,,,0.00,,2013-08-10 13:01:00,
2013-08-10 08:11:00,77.0,69.0,29.94,NNW,336,1.0,3.0,76,0.00,,,0.00,,2013-08-10 13:11:00,
2013-08-10 08:21:00,78.0,71.0,29.95,North,5,2.0,3.0,78,0.00,,,0.00,,2013-08-10 13:21:00,
2013-08-10 08:32:00,79.0,72.0,29.95,North,351,3.0,6.0,80,0.00,,,0.00,,2013-08-10 13:32:00,
2013-08-10 08:43:00,79.0,72.0,29.95,North,351,3.0,6.0,80,0.00,,,0.00,,2013-08-10 13:43:00,
2013-08-10 08:52:00,80.0,74.0,29.96,North,355,5.0,9.0,81,0.00,,,0.00,,2013-08-10 13:52:00,
2013-08-10 09:02:00,80.0,74.0,29.96,North,355,5.0,9.0,81,0.00,,,0.00,,2013-08-10 14:02:00,
2013-08-10 09:12:00,81.0,74.0,29.96,NNW,339,3.0,7.0,80,0.00,,,0.00,,2013-08-10 14:12:00,
2013-08-10 09:22:00,81.0,74.0,29.96,NNW,339,3.0,7.0,80,0.00,,,0.00,,2013-08-10 14:22:00,
2013-08-10 09:32:00,81.0,74.0,29.96,NNW,339,3.0,7.0,80,0.00,,,0.00,,2013-08-10 14:32:00,
2013-08-10 09:42:00,83.0,75.0,29.97,North,5,5.0,10.0,78,0.00,,,0.00,,2013-08-10 14:42:00,
2013-08-10 09:53:00,83.0,75.0,29.97,North,5,5.0,10.0,78,0.00,,,0.00,,2013-08-10 14:53:00,
2013-08-10 10:02:00,84.0,76.0,29.97,North,7,5.0,8.0,76,0.00,,,0.00,,2013-08-10 15:02:00,
2013-08-10 10:11:00,85.0,76.0,29.97,North,351,5.0,9.0,74,0.00,,,0.00,,2013-08-10 15:11:00,
2013-08-10 10:22:00,85.0,76.0,29.98,NNW,348,3.0,9.0,74,0.00,,,0.00,,2013-08-10 15:22:00,
2013-08-10 10:33:00,85.0,76.0,29.98,NNW,348,3.0,9.0,74,0.00,,,0.00,,2013-08-10 15:33:00,
2013-08-10 10:43:00,87.0,77.0,29.98,NE,47,2.0,9.0,72,0.00,,,0.00,,2013-08-10 15:43:00,
2013-08-10 10:52:00,88.0,77.0,29.98,North,6,2.0,7.0,69,0.00,,,0.00,,2013-08-10 15:52:00,
2013-08-10 11:01:00,87.0,76.0,29.98,NNE,24,2.0,6.0,69,0.00,,,0.00,,2013-08-10 16:01:00,
2013-08-10 11:11:00,87.0,76.0,29.98,NNE,24,2.0,6.0,69,0.00,,,0.00,,2013-08-10 16:11:00,
2013-08-10 11:22:00,87.0,76.0,29.98,NNE,24,2.0,6.0,69,0.00,,,0.00,,2013-08-10 16:22:00,
2013-08-10 11:32:00,87.0,76.0,29.98,NNE,24,2.0,6.0,69,0.00,,,0.00,,2013-08-10 16:32:00,
2013-08-10 11:43:00,89.0,77.0,29.99,NNW,342,6.0,10.0,67,0.00,,,0.00,,2013-08-10 16:43:00,
2013-08-10 11:53:00,89.0,76.0,29.98,NW,312,4.0,12.0,66,0.00,,,0.00,,2013-08-10 16:53:00,
2013-08-10 12:02:00,89.0,76.0,29.98,NNW,330,5.0,10.0,65,0.00,,,0.00,,2013-08-10 17:02:00,
2013-08-10 12:12:00,89.0,76.0,29.98,NNW,330,5.0,10.0,65,0.00,,,0.00,,2013-08-10 17:12:00,
2013-08-10 12:22:00,90.0,75.0,29.98,WNW,297,7.0,12.0,62,0.00,,,0.00,,2013-08-10 17:22:00,
2013-08-10 12:33:00,90.0,75.0,29.98,WNW,297,7.0,12.0,62,0.00,,,0.00,,2013-08-10 17:33:00,
2013-08-10 12:43:00,91.0,76.0,29.98,NNW,333,5.0,9.0,62,0.00,,,0.00,,2013-08-10 17:43:00,
2013-08-10 12:52:00,91.0,76.0,29.98,NNW,333,5.0,9.0,62,0.00,,,0.00,,2013-08-10 17:52:00,
2013-08-10 13:01:00,92.0,76.0,29.98,NNW,333,4.0,10.0,60,0.00,,,0.00,,2013-08-10 18:01:00,
2013-08-10 13:11:00,92.0,76.0,29.98,NNW,333,4.0,10.0,60,0.00,,,0.00,,2013-08-10 18:11:00,
2013-08-10 13:23:00,92.0,76.0,29.98,NNW,333,4.0,10.0,60,0.00,,,0.00,,2013-08-10 18:23:00,
2013-08-10 13:32:00,93.0,74.0,29.97,WNW,300,5.0,14.0,55,0.00,,,0.00,,2013-08-10 18:32:00,
2013-08-10 13:44:00,93.0,74.0,29.97,NW,317,5.0,12.0,54,0.00,,,0.00,,2013-08-10 18:44:00,
2013-08-10 13:52:00,93.0,74.0,29.97,NW,317,5.0,12.0,54,0.00,,,0.00,,2013-08-10 18:52:00,
2013-08-10 14:02:00,94.0,74.0,29.96,NNW,347,4.0,12.0,53,0.00,,,0.00,,2013-08-10 19:02:00,
2013-08-10 14:11:00,94.0,74.0,29.96,NNW,347,4.0,12.0,53,0.00,,,0.00,,2013-08-10 19:11:00,
2013-08-10 14:22:00,94.0,74.0,29.96,NNW,347,4.0,12.0,53,0.00,,,0.00,,2013-08-10 19:22:00,
2013-08-10 14:33:00,94.0,72.0,29.95,NNW,336,4.0,10.0,50,0.00,,,0.00,,2013-08-10 19:33:00,
2013-08-10 14:44:00,95.0,73.0,29.95,NW,324,5.0,12.0,50,0.00,,,0.00,,2013-08-10 19:44:00,
2013-08-10 14:53:00,95.0,73.0,29.94,NNW,333,5.0,9.0,50,0.00,,,0.00,,2013-08-10 19:53:00,
2013-08-10 15:01:00,96.0,74.0,29.94,NW,312,3.0,9.0,50,0.00,,,0.00,,2013-08-10 20:01:00,
2013-08-10 15:11:00,96.0,72.0,29.93,WNW,300,3.0,12.0,47,0.00,,,0.00,,2013-08-10 20:11:00,
2013-08-10 15:22:00,96.0,72.0,29.93,WNW,300,3.0,12.0,47,0.00,,,0.00,,2013-08-10 20:22:00,
2013-08-10 15:33:00,96.0,72.0,29.93,WNW,300,3.0,12.0,47,0.00,,,0.00,,2013-08-10 20:33:00,
2013-08-10 15:43:00,96.0,72.0,29.93,WNW,300,3.0,12.0,47,0.00,,,0.00,,2013-08-10 20:43:00,
2013-08-10 15:53:00,96.0,71.0,29.92,NNW,335,5.0,10.0,44,0.00,,,0.00,,2013-08-10 20:53:00,
2013-08-10 16:02:00,96.0,71.0,29.92,NNW,335,5.0,10.0,44,0.00,,,0.00,,2013-08-10 21:02:00,
2013-08-10 16:12:00,97.0,73.0,29.91,NW,310,6.0,12.0,47,0.00,,,0.00,,2013-08-10 21:12:00,
2013-08-10 16:22:00,97.0,73.0,29.91,NW,310,6.0,12.0,47,0.00,,,0.00,,2013-08-10 21:22:00,
2013-08-10 16:32:00,97.0,73.0,29.90,WNW,290,5.0,10.0,47,0.00,,,0.00,,2013-08-10 21:32:00,
2013-08-10 16:42:00,97.0,73.0,29.89,WNW,301,5.0,10.0,46,0.00,,,0.00,,2013-08-10 21:42:00,
2013-08-10 16:52:00,97.0,73.0,29.89,WNW,301,5.0,10.0,46,0.00,,,0.00,,2013-08-10 21:52:00,
2013-08-10 17:01:00,97.0,73.0,29.89,NNW,336,3.0,10.0,47,0.00,,,0.00,,2013-08-10 22:01:00,
2013-08-10 17:11:00,97.0,73.0,29.89,NNW,336,3.0,10.0,47,0.00,,,0.00,,2013-08-10 22:11:00,
2013-08-10 17:21:00,97.0,73.0,29.89,NNW,336,3.0,10.0,47,0.00,,,0.00,,2013-08-10 22:21:00,
2013-08-10 17:32:00,97.0,73.0,29.89,NNW,336,3.0,10.0,47,0.00,,,0.00,,2013-08-10 22:32:00,
2013-08-10 17:52:00,97.0,72.0,29.89,North,355,5.0,10.0,45,0.00,,,0.00,,2013-08-10 22:52:00,
2013-08-10 18:01:00,97.0,71.0,29.88,North,355,3.0,9.0,44,0.00,,,0.00,,2013-08-10 23:01:00,
2013-08-10 18:12:00,97.0,71.0,29.88,North,355,3.0,9.0,44,0.00,,,0.00,,2013-08-10 23:12:00,
2013-08-10 18:22:00,96.0,71.0,29.89,NNW,347,3.0,12.0,44,0.00,,,0.00,,2013-08-10 23:22:00,
2013-08-10 18:32:00,96.0,71.0,29.89,NNW,347,3.0,12.0,44,0.00,,,0.00,,2013-08-10 23:32:00,
2013-08-10 18:43:00,96.0,71.0,29.89,NNW,347,3.0,12.0,44,0.00,,,0.00,,2013-08-10 23:43:00,
2013-08-10 18:53:00,96.0,71.0,29.88,North,2,3.0,9.0,44,0.00,,,0.00,,2013-08-10 23:53:00,
2013-08-10 19:01:00,96.0,71.0,29.88,North,355,4.0,10.0,44,0.00,,,0.00,,2013-08-11 00:01:00,
2013-08-10 19:11:00,95.0,70.0,29.88,North,0,3.0,7.0,44,0.00,,,0.00,,2013-08-11 00:11:00,
2013-08-10 19:22:00,95.0,70.0,29.88,North,0,3.0,7.0,44,0.00,,,0.00,,2013-08-11 00:22:00,
2013-08-10 19:32:00,94.0,69.0,29.88,NNE,19,3.0,7.0,45,0.00,,,0.00,,2013-08-11 00:32:00,
2013-08-10 19:42:00,94.0,69.0,29.88,NNE,19,3.0,7.0,45,0.00,,,0.00,,2013-08-11 00:42:00,
2013-08-10 19:52:00,94.0,69.0,29.89,North,355,2.0,8.0,45,0.00,,,0.00,,2013-08-11 00:52:00,
2013-08-10 20:01:00,94.0,69.0,29.89,North,355,2.0,8.0,45,0.00,,,0.00,,2013-08-11 01:01:00,
2013-08-10 20:11:00,92.0,69.0,29.90,North,356,2.0,6.0,47,0.00,,,0.00,,2013-08-11 01:11:00,
2013-08-10 20:22:00,92.0,69.0,29.90,North,356,2.0,6.0,47,0.00,,,0.00,,2013-08-11 01:22:00,
2013-08-10 20:32:00,91.0,69.0,29.91,NNW,346,2.0,3.0,49,0.00,,,0.00,,2013-08-11 01:32:00,
2013-08-10 20:43:00,91.0,69.0,29.91,North,359,1.0,3.0,49,0.00,,,0.00,,2013-08-11 01:43:00,
2013-08-10 20:53:00,90.0,69.0,29.92,North,355,1.0,3.0,51,0.00,,,0.00,,2013-08-11 01:53:00,
2013-08-10 21:02:00,90.0,69.0,29.92,North,355,2.0,3.0,51,0.00,,,0.00,,2013-08-11 02:02:00,
2013-08-10 21:11:00,90.0,69.0,29.92,North,355,2.0,3.0,51,0.00,,,0.00,,2013-08-11 02:11:00,
2013-08-10 21:22:00,89.0,70.0,29.92,North,355,2.0,5.0,53,0.00,,,0.00,,2013-08-11 02:22:00,
2013-08-10 21:32:00,89.0,70.0,29.92,North,5,2.0,6.0,53,0.00,,,0.00,,2013-08-11 02:32:00,
2013-08-10 21:43:00,88.0,69.0,29.93,North,358,2.0,6.0,54,0.00,,,0.00,,2013-08-11 02:43:00,
2013-08-10 21:57:00,88.0,69.0,29.93,North,358,2.0,6.0,54,0.00,,,0.00,,2013-08-11 02:57:00,
2013-08-10 22:05:00,87.0,69.0,29.93,North,356,1.0,3.0,55,0.00,,,0.00,,2013-08-11 03:05:00,
2013-08-10 22:15:00,87.0,69.0,29.94,North,357,1.0,5.0,55,0.00,,,0.00,,2013-08-11 03:15:00,
2013-08-10 22:26:00,87.0,69.0,29.94,North,357,1.0,5.0,55,0.00,,,0.00,,2013-08-11 03:26:00,
2013-08-10 22:35:00,87.0,69.0,29.94,North,351,2.0,3.0,55,0.00,,,0.00,,2013-08-11 03:35:00,
2013-08-10 22:43:00,87.0,69.0,29.94,North,351,2.0,3.0,55,0.00,,,0.00,,2013-08-11 03:43:00,
2013-08-10 22:54:00,86.0,69.0,29.95,NNE,18,1.0,5.0,57,0.00,,,0.00,,2013-08-11 03:54:00,
2013-08-10 23:01:00,86.0,69.0,29.95,ENE,72,1.0,5.0,58,0.00,,,0.00,,2013-08-11 04:01:00,
2013-08-10 23:12:00,86.0,69.0,29.96,East,87,3.0,8.0,58,0.00,,,0.00,,2013-08-11 04:12:00,
2013-08-10 23:22:00,85.0,69.0,29.96,ESE,106,1.0,6.0,58,0.00,,,0.00,,2013-08-11 04:22:00,
2013-08-10 23:32:00,85.0,69.0,29.96,ESE,106,1.0,6.0,58,0.00,,,0.00,,2013-08-11 04:32:00,
2013-08-10 23:42:00,85.0,69.0,29.96,ESE,106,1.0,6.0,58,0.00,,,0.00,,2013-08-11 04:42:00,
2013-08-10 23:53:00,85.0,69.0,29.96,ESE,106,1.0,6.0,58,0.00,,,0.00,,2013-08-11 04:53:00,